Time;durP1;ratioP1;P1;durP2;ratioP2;P2;SDS_P1;SDS_P2;PMS_P1;PMS_P2;Temp;Humidity;BMP_temperature;BMP_pressure;BME280_temperature;BME280_humidity;BME280_pressure;Samples;Min_cycle;Max_cycle;Signal;HPM_P1;HPM_P2
2022/09/15 00:02:25;;;;;;;19.58;13.50;;;;;;;;;;5073514;28;20553;-78
2022/09/15 00:04:52;;;;;;;18.00;12.95;;;;;;;;;;5073143;28;20659;-78
2022/09/15 00:07:19;;;;;;;15.65;11.70;;;;;;;;;;5073315;28;20615;-78
2022/09/15 00:09:48;;;;;;;16.85;11.75;;;;;;;;;;5073373;28;20247;-78
2022/09/15 00:12:15;;;;;;;15.38;10.27;;;;;;;;;;5073026;28;20253;-78
2022/09/15 00:14:42;;;;;;;14.98;9.60;;;;;;;;;;5072802;28;20210;-78
2022/09/15 00:17:10;;;;;;;14.30;8.75;;;;;;;;;;5073421;28;20550;-78
2022/09/15 00:19:37;;;;;;;13.15;8.02;;;;;;;;;;5072647;28;20665;-78
2022/09/15 00:22:04;;;;;;;9.77;7.90;;;;;;;;;;5072303;28;20254;-78
2022/09/15 00:24:31;;;;;;;10.57;7.03;;;;;;;;;;5072849;28;20319;-78
2022/09/15 00:27:00;;;;;;;8.88;7.03;;;;;;;;;;5072439;28;20203;-77
2022/09/15 00:29:27;;;;;;;8.05;6.57;;;;;;;;;;5072224;28;20260;-77
2022/09/15 00:31:54;;;;;;;9.27;6.72;;;;;;;;;;5071167;28;20231;-77
2022/09/15 00:34:22;;;;;;;8.45;6.60;;;;;;;;;;5053783;28;20665;-77
2022/09/15 00:36:49;;;;;;;6.43;5.43;;;;;;;;;;5065446;28;20234;-77
2022/09/15 00:39:17;;;;;;;8.20;4.70;;;;;;;;;;5072508;28;20246;-77
2022/09/15 00:41:44;;;;;;;5.18;4.63;;;;;;;;;;5071275;28;20203;-78
2022/09/15 00:44:30;;;;;;;6.85;4.47;;;;;;;;;;5072251;28;20271;-77
2022/09/15 00:46:59;;;;;;;5.97;4.63;;;;;;;;;;5070364;28;20242;-78
2022/09/15 00:49:27;;;;;;;5.97;4.70;;;;;;;;;;5064117;28;20238;-78
2022/09/15 00:51:57;;;;;;;10.25;5.43;;;;;;;;;;5066829;28;20287;-78
2022/09/15 00:54:27;;;;;;;6.65;5.68;;;;;;;;;;5055131;28;20227;-78
2022/09/15 00:56:56;;;;;;;6.75;5.70;;;;;;;;;;5052394;28;20231;-78
2022/09/15 00:59:25;;;;;;;5.90;5.30;;;;;;;;;;5051939;28;20258;-78
2022/09/15 01:01:55;;;;;;;6.43;5.35;;;;;;;;;;5064488;28;20282;-78
2022/09/15 01:04:24;;;;;;;6.53;5.00;;;;;;;;;;5068141;28;20227;-78
2022/09/15 01:06:54;;;;;;;5.22;4.28;;;;;;;;;;5071468;28;20211;-78
2022/09/15 01:09:24;;;;;;;6.57;4.57;;;;;;;;;;5066644;28;20226;-78
2022/09/15 01:11:51;;;;;;;7.13;4.43;;;;;;;;;;5063906;28;20281;-78
2022/09/15 01:14:19;;;;;;;5.50;4.47;;;;;;;;;;5065292;28;20227;-78
2022/09/15 01:16:52;;;;;;;5.00;4.33;;;;;;;;;;5052488;28;20231;-78
2022/09/15 01:19:34;;;;;;;4.85;4.35;;;;;;;;;;5063317;28;20264;-78
2022/09/15 01:22:07;;;;;;;6.95;4.57;;;;;;;;;;5072204;28;20230;-78
2022/09/15 01:24:43;;;;;;;7.00;4.60;;;;;;;;;;5072083;28;20253;-78
2022/09/15 01:27:16;;;;;;;6.43;4.70;;;;;;;;;;5071352;28;20203;-78
2022/09/15 01:29:58;;;;;;;7.22;5.05;;;;;;;;;;5072111;28;20227;-78
2022/09/15 01:35:19;;;;;;;5.53;4.43;;;;;;;;;;5057696;28;20194;-78
2022/09/15 01:37:50;;;;;;;7.68;4.63;;;;;;;;;;5071947;28;20652;-78
2022/09/15 01:40:18;;;;;;;6.15;4.28;;;;;;;;;;5051390;28;20235;-78
2022/09/15 01:42:45;;;;;;;5.40;4.90;;;;;;;;;;5069545;28;20231;-78
2022/09/15 01:45:14;;;;;;;5.20;4.30;;;;;;;;;;5051534;28;20302;-78
2022/09/15 01:47:43;;;;;;;4.80;4.30;;;;;;;;;;5067824;28;20294;-78
2022/09/15 01:50:12;;;;;;;5.82;4.68;;;;;;;;;;5071955;28;20294;-78
2022/09/15 01:52:41;;;;;;;5.45;4.95;;;;;;;;;;5071650;28;20203;-78
2022/09/15 01:55:17;;;;;;;7.38;4.47;;;;;;;;;;5071830;28;20226;-78
2022/09/15 01:57:45;;;;;;;5.30;4.50;;;;;;;;;;5070747;28;20250;-78
2022/09/15 02:00:13;;;;;;;5.20;4.70;;;;;;;;;;5060776;28;20200;-78
2022/09/15 02:02:42;;;;;;;6.57;4.88;;;;;;;;;;5071091;28;20252;-78
2022/09/15 02:05:18;;;;;;;5.65;4.90;;;;;;;;;;5071971;28;20619;-78
2022/09/15 02:07:51;;;;;;;7.00;4.68;;;;;;;;;;5071349;28;20277;-78
2022/09/15 02:10:23;;;;;;;6.88;5.25;;;;;;;;;;5069517;28;20706;-78
2022/09/15 02:12:54;;;;;;;7.47;5.55;;;;;;;;;;5064167;28;20203;-78
2022/09/15 02:15:24;;;;;;;6.85;5.47;;;;;;;;;;5071386;28;20235;-78
2022/09/15 02:17:54;;;;;;;6.75;5.60;;;;;;;;;;5071745;28;20230;-78
2022/09/15 02:20:28;;;;;;;6.80;5.20;;;;;;;;;;5074177;28;20252;-78
2022/09/15 02:22:57;;;;;;;6.28;5.20;;;;;;;;;;5074514;28;20281;-78
2022/09/15 02:25:27;;;;;;;7.07;5.28;;;;;;;;;;5075295;28;20290;-78
2022/09/15 02:27:56;;;;;;;6.75;5.97;;;;;;;;;;5074499;28;20230;-78
2022/09/15 02:30:23;;;;;;;6.38;5.78;;;;;;;;;;5055237;28;20283;-78
2022/09/15 02:32:54;;;;;;;8.43;6.45;;;;;;;;;;5056391;28;20200;-78
2022/09/15 02:35:24;;;;;;;10.02;6.47;;;;;;;;;;5075117;28;20221;-78
2022/09/15 02:37:52;;;;;;;7.13;5.90;;;;;;;;;;5074430;28;20222;-78
2022/09/15 02:40:19;;;;;;;9.38;6.68;;;;;;;;;;5075157;28;20241;-78
2022/09/15 02:42:52;;;;;;;8.75;6.50;;;;;;;;;;5074517;28;20298;-78
2022/09/15 02:45:20;;;;;;;9.35;5.88;;;;;;;;;;5074824;28;20230;-78
2022/09/15 02:47:47;;;;;;;7.78;6.63;;;;;;;;;;5066635;28;20560;-78
2022/09/15 02:50:15;;;;;;;6.63;5.93;;;;;;;;;;5055010;28;20200;-78
2022/09/15 02:52:43;;;;;;;7.95;6.35;;;;;;;;;;5054467;28;20624;-78
2022/09/15 02:55:11;;;;;;;7.82;7.00;;;;;;;;;;5054357;28;20283;-78
2022/09/15 02:57:38;;;;;;;8.98;6.60;;;;;;;;;;5070457;28;20641;-78
2022/09/15 03:00:17;;;;;;;8.32;7.32;;;;;;;;;;5074125;28;20242;-78
2022/09/15 03:02:46;;;;;;;9.38;6.63;;;;;;;;;;5074719;28;20206;-78
2022/09/15 03:05:15;;;;;;;7.68;6.57;;;;;;;;;;5074726;28;20268;-78
2022/09/15 03:07:44;;;;;;;9.82;6.88;;;;;;;;;;5074567;28;20237;-78
2022/09/15 03:10:13;;;;;;;8.68;6.93;;;;;;;;;;5056133;28;20232;-79
2022/09/15 03:12:40;;;;;;;8.13;6.88;;;;;;;;;;5054317;28;20238;-79
2022/09/15 03:15:08;;;;;;;8.77;7.05;;;;;;;;;;5054609;28;20231;-78
2022/09/15 03:17:36;;;;;;;8.20;7.40;;;;;;;;;;5071333;28;20246;-78
2022/09/15 03:20:03;;;;;;;10.05;7.50;;;;;;;;;;5073231;28;20219;-79
2022/09/15 03:22:31;;;;;;;9.95;7.80;;;;;;;;;;5064495;28;20272;-78
2022/09/15 03:25:00;;;;;;;9.02;7.47;;;;;;;;;;5074174;28;20207;-78
2022/09/15 03:27:27;;;;;;;9.60;7.72;;;;;;;;;;5073491;28;20208;-78
2022/09/15 03:29:54;;;;;;;10.40;7.78;;;;;;;;;;5054352;28;20283;-78
2022/09/15 03:32:21;;;;;;;9.98;7.40;;;;;;;;;;5054627;28;20203;-78
2022/09/15 03:34:48;;;;;;;9.48;8.07;;;;;;;;;;5073776;28;20230;-77
2022/09/15 03:37:16;;;;;;;9.63;7.22;;;;;;;;;;5073577;28;20277;-78
2022/09/15 03:39:43;;;;;;;7.97;7.18;;;;;;;;;;5073484;28;20225;-78
2022/09/15 03:42:11;;;;;;;9.55;7.35;;;;;;;;;;5067875;28;20286;-79
2022/09/15 03:44:39;;;;;;;8.43;7.22;;;;;;;;;;5067001;28;20250;-79
2022/09/15 03:47:06;;;;;;;8.27;7.05;;;;;;;;;;5073059;28;20240;-78
2022/09/15 03:49:33;;;;;;;7.53;6.78;;;;;;;;;;5073002;28;20195;-78
2022/09/15 03:52:00;;;;;;;9.77;7.15;;;;;;;;;;5068675;28;20294;-78
2022/09/15 03:54:28;;;;;;;9.88;8.15;;;;;;;;;;5073436;28;20230;-78
2022/09/15 03:56:56;;;;;;;8.90;7.60;;;;;;;;;;5070631;28;20614;-78
2022/09/15 03:59:24;;;;;;;8.95;7.72;;;;;;;;;;5053234;28;20259;-78
2022/09/15 04:01:52;;;;;;;11.40;7.68;;;;;;;;;;5053320;28;20282;-78
2022/09/15 04:04:19;;;;;;;11.00;7.65;;;;;;;;;;5053060;28;20291;-78
2022/09/15 04:06:46;;;;;;;10.02;7.53;;;;;;;;;;5053383;28;20231;-78
2022/09/15 04:09:14;;;;;;;8.65;7.75;;;;;;;;;;5053007;28;20287;-78
2022/09/15 04:11:41;;;;;;;9.18;7.32;;;;;;;;;;5053576;28;20202;-78
2022/09/15 04:14:08;;;;;;;8.65;7.68;;;;;;;;;;5053362;28;20203;-78
2022/09/15 04:16:37;;;;;;;11.00;7.45;;;;;;;;;;5062185;28;20266;-78
2022/09/15 04:19:04;;;;;;;10.70;8.73;;;;;;;;;;5072467;28;20302;-78
2022/09/15 04:21:31;;;;;;;10.20;7.90;;;;;;;;;;5073160;28;20605;-79
2022/09/15 04:23:59;;;;;;;12.18;8.95;;;;;;;;;;5073068;28;20290;-77
2022/09/15 04:26:28;;;;;;;10.15;7.88;;;;;;;;;;5072394;28;20286;-78
2022/09/15 04:28:56;;;;;;;10.73;8.43;;;;;;;;;;5073158;28;20195;-78
2022/09/15 04:31:23;;;;;;;8.57;7.68;;;;;;;;;;5071873;28;20253;-78
2022/09/15 04:33:54;;;;;;;9.57;8.52;;;;;;;;;;5057793;28;20286;-78
2022/09/15 04:36:22;;;;;;;12.68;9.57;;;;;;;;;;5070901;28;20687;-78
2022/09/15 04:38:50;;;;;;;10.80;8.90;;;;;;;;;;5072267;28;20257;-78
2022/09/15 04:41:17;;;;;;;10.93;8.63;;;;;;;;;;5063913;28;20249;-78
2022/09/15 04:43:45;;;;;;;11.32;9.10;;;;;;;;;;5072011;28;20264;-78
2022/09/15 04:46:12;;;;;;;13.33;10.00;;;;;;;;;;5072339;28;20738;-79
2022/09/15 04:48:40;;;;;;;10.87;9.13;;;;;;;;;;5070436;28;20274;-78
2022/09/15 04:51:09;;;;;;;11.63;9.30;;;;;;;;;;5071812;28;20289;-78
2022/09/15 04:53:37;;;;;;;10.03;8.80;;;;;;;;;;5071973;28;20233;-78
2022/09/15 04:56:05;;;;;;;13.30;9.80;;;;;;;;;;5059787;28;20700;-78
2022/09/15 04:58:35;;;;;;;10.83;9.07;;;;;;;;;;5061068;28;20339;-78
2022/09/15 05:01:07;;;;;;;10.97;9.53;;;;;;;;;;5070666;28;20261;-78
2022/09/15 05:03:36;;;;;;;12.23;9.73;;;;;;;;;;5071527;28;20199;-78
2022/09/15 05:06:05;;;;;;;15.33;11.13;;;;;;;;;;5070348;28;20205;-78
2022/09/15 05:08:34;;;;;;;12.00;10.23;;;;;;;;;;5063123;28;20202;-79
2022/09/15 05:11:02;;;;;;;14.00;10.67;;;;;;;;;;5053484;28;20291;-79
2022/09/15 05:13:29;;;;;;;14.23;10.97;;;;;;;;;;5070469;28;20702;-78
2022/09/15 05:15:56;;;;;;;14.20;10.97;;;;;;;;;;5065298;28;20232;-78
2022/09/15 05:18:24;;;;;;;15.47;11.70;;;;;;;;;;5065117;28;20223;-78
2022/09/15 05:20:58;;;;;;;15.33;11.57;;;;;;;;;;5062693;28;20199;-78
2022/09/15 05:23:25;;;;;;;17.20;11.33;;;;;;;;;;5063672;28;20232;-78
2022/09/15 05:25:57;;;;;;;17.43;12.90;;;;;;;;;;5065040;28;20226;-78
2022/09/15 05:28:25;;;;;;;17.27;12.03;;;;;;;;;;5071727;28;20246;-78
2022/09/15 05:30:52;;;;;;;15.23;12.37;;;;;;;;;;5068685;28;20230;-79
2022/09/15 05:33:19;;;;;;;16.33;12.57;;;;;;;;;;5062365;28;20684;-78
2022/09/15 05:35:53;;;;;;;15.47;10.70;;;;;;;;;;5062661;28;20242;-79
2022/09/15 05:38:20;;;;;;;17.37;12.23;;;;;;;;;;5068097;28;20286;-78
2022/09/15 05:40:47;;;;;;;19.40;12.83;;;;;;;;;;5064888;28;20255;-79
2022/09/15 05:43:16;;;;;;;17.23;12.70;;;;;;;;;;5053743;28;20748;-79
2022/09/15 05:45:43;;;;;;;19.00;13.13;;;;;;;;;;5066287;28;20678;-78
2022/09/15 05:48:11;;;;;;;17.47;13.27;;;;;;;;;;5070971;28;20238;-78
2022/09/15 05:50:38;;;;;;;18.27;12.70;;;;;;;;;;5068208;28;20217;-78
2022/09/15 05:53:06;;;;;;;19.03;12.80;;;;;;;;;;5069267;28;20238;-78
2022/09/15 05:55:37;;;;;;;16.17;12.97;;;;;;;;;;5074668;28;20207;-78
2022/09/15 05:58:05;;;;;;;18.07;13.03;;;;;;;;;;5075103;28;20230;-79
2022/09/15 06:00:33;;;;;;;17.10;12.77;;;;;;;;;;5074976;28;20692;-79
2022/09/15 06:03:01;;;;;;;16.73;12.77;;;;;;;;;;5074433;28;20286;-79
2022/09/15 06:05:28;;;;;;;20.10;12.93;;;;;;;;;;5075507;28;20195;-78
2022/09/15 06:07:56;;;;;;;18.87;13.47;;;;;;;;;;5075452;28;20245;-79
2022/09/15 06:10:24;;;;;;;17.20;13.63;;;;;;;;;;5075597;28;20226;-78
2022/09/15 06:12:53;;;;;;;18.27;14.83;;;;;;;;;;5068937;28;20199;-78
2022/09/15 06:15:20;;;;;;;21.03;14.47;;;;;;;;;;5068180;28;20223;-79
2022/09/15 06:17:49;;;;;;;25.57;15.67;;;;;;;;;;5055624;28;20246;-78
2022/09/15 06:20:17;;;;;;;21.97;14.80;;;;;;;;;;5054907;28;20586;-78
2022/09/15 06:22:44;;;;;;;20.83;15.07;;;;;;;;;;5067401;28;20227;-78
2022/09/15 06:25:12;;;;;;;18.63;14.93;;;;;;;;;;5075351;28;20256;-79
2022/09/15 06:27:39;;;;;;;19.20;15.20;;;;;;;;;;5074702;28;20241;-78
2022/09/15 06:30:07;;;;;;;27.37;16.30;;;;;;;;;;5074983;28;20199;-78
2022/09/15 06:32:35;;;;;;;23.97;15.97;;;;;;;;;;5070494;28;20231;-78
2022/09/15 06:35:05;;;;;;;22.53;16.33;;;;;;;;;;5055491;28;20200;-78
2022/09/15 06:37:33;;;;;;;21.88;16.52;;;;;;;;;;5055182;28;20841;-79
2022/09/15 06:40:00;;;;;;;25.63;18.27;;;;;;;;;;5055408;28;20235;-78
2022/09/15 06:42:28;;;;;;;25.43;18.17;;;;;;;;;;5055318;28;20751;-78
2022/09/15 06:44:55;;;;;;;24.70;18.40;;;;;;;;;;5055072;28;20336;-78
2022/09/15 06:47:22;;;;;;;25.60;18.73;;;;;;;;;;5055068;28;20235;-79
2022/09/15 06:49:49;;;;;;;26.83;18.37;;;;;;;;;;5056641;28;20196;-79
2022/09/15 06:52:18;;;;;;;24.48;18.00;;;;;;;;;;5074463;28;20239;-79
2022/09/15 06:54:45;;;;;;;22.63;17.40;;;;;;;;;;5074974;28;20241;-79
2022/09/15 06:57:12;;;;;;;24.50;16.33;;;;;;;;;;5068939;28;20690;-79
2022/09/15 06:59:39;;;;;;;21.08;15.82;;;;;;;;;;5074121;28;20319;-79
2022/09/15 07:02:07;;;;;;;19.08;15.13;;;;;;;;;;5073566;28;20722;-79
2022/09/15 07:04:35;;;;;;;18.23;15.35;;;;;;;;;;5074302;28;20297;-79
2022/09/15 07:07:02;;;;;;;19.85;15.70;;;;;;;;;;5074731;28;20690;-79
2022/09/15 07:09:31;;;;;;;17.23;15.48;;;;;;;;;;5074625;28;20227;-79
2022/09/15 07:11:58;;;;;;;17.08;14.30;;;;;;;;;;5074060;28;20627;-79
2022/09/15 07:14:25;;;;;;;18.92;14.68;;;;;;;;;;5074017;28;20207;-79
2022/09/15 07:16:53;;;;;;;15.98;14.27;;;;;;;;;;5066736;28;20657;-79
2022/09/15 07:19:20;;;;;;;15.88;14.27;;;;;;;;;;5074305;28;20872;-79
2022/09/15 07:21:47;;;;;;;15.40;13.48;;;;;;;;;;5073553;28;20194;-79
2022/09/15 07:24:14;;;;;;;15.75;14.07;;;;;;;;;;5074849;28;20206;-79
2022/09/15 07:26:43;;;;;;;13.23;11.93;;;;;;;;;;5073913;28;20242;-79
2022/09/15 07:29:10;;;;;;;15.05;13.40;;;;;;;;;;5074494;28;20199;-79
2022/09/15 07:31:38;;;;;;;14.35;12.93;;;;;;;;;;5074377;28;20199;-79
2022/09/15 07:34:06;;;;;;;16.13;13.15;;;;;;;;;;5073027;28;20637;-79
2022/09/15 07:36:34;;;;;;;15.57;13.55;;;;;;;;;;5073692;28;20199;-79
2022/09/15 07:39:01;;;;;;;14.00;12.60;;;;;;;;;;5073935;28;20207;-79
2022/09/15 07:41:29;;;;;;;13.90;12.60;;;;;;;;;;5073476;28;20287;-79
2022/09/15 07:43:58;;;;;;;12.45;11.25;;;;;;;;;;5073532;28;20262;-79
2022/09/15 07:46:26;;;;;;;13.25;11.85;;;;;;;;;;5073910;28;20666;-79
2022/09/15 07:48:55;;;;;;;12.85;11.65;;;;;;;;;;5068708;28;20228;-79
2022/09/15 07:51:23;;;;;;;11.40;10.35;;;;;;;;;;5053847;28;20195;-79
2022/09/15 07:53:50;;;;;;;12.20;10.90;;;;;;;;;;5053858;28;20214;-79
2022/09/15 07:56:18;;;;;;;12.00;10.80;;;;;;;;;;5067048;28;20207;-80
2022/09/15 07:58:45;;;;;;;11.25;9.95;;;;;;;;;;5073667;28;20233;-79
2022/09/15 08:01:14;;;;;;;11.25;10.07;;;;;;;;;;5064458;28;20310;-79
2022/09/15 08:03:45;;;;;;;11.15;10.15;;;;;;;;;;5054150;28;20199;-79
2022/09/15 08:06:15;;;;;;;11.88;10.68;;;;;;;;;;5055054;28;20203;-79
2022/09/15 08:08:43;;;;;;;12.50;11.30;;;;;;;;;;5073937;28;20257;-79
2022/09/15 08:11:12;;;;;;;11.45;9.82;;;;;;;;;;5073371;28;20191;-79
2022/09/15 08:13:39;;;;;;;11.20;10.10;;;;;;;;;;5073653;28;20195;-79
2022/09/15 08:16:07;;;;;;;11.10;10.20;;;;;;;;;;5073425;28;20241;-77
2022/09/15 08:18:36;;;;;;;11.65;10.45;;;;;;;;;;5073136;28;20245;-79
2022/09/15 08:21:05;;;;;;;10.05;9.15;;;;;;;;;;5073518;28;20348;-78
2022/09/15 08:23:33;;;;;;;10.18;8.98;;;;;;;;;;5056401;28;20200;-79
2022/09/15 08:26:00;;;;;;;9.60;8.63;;;;;;;;;;5052970;28;20231;-79
2022/09/15 08:28:27;;;;;;;8.80;7.90;;;;;;;;;;5053408;28;20242;-79
2022/09/15 08:31:01;;;;;;;8.82;8.13;;;;;;;;;;5052990;28;20607;-79
2022/09/15 08:33:28;;;;;;;9.60;8.60;;;;;;;;;;5053127;28;20199;-79
2022/09/15 08:36:01;;;;;;;9.82;7.60;;;;;;;;;;5052984;28;20253;-79
2022/09/15 08:38:28;;;;;;;7.82;6.88;;;;;;;;;;5053314;28;20196;-79
2022/09/15 08:40:58;;;;;;;7.93;7.22;;;;;;;;;;5052643;28;20281;-79
2022/09/15 08:43:26;;;;;;;7.32;6.63;;;;;;;;;;5067199;28;20261;-79
2022/09/15 08:45:54;;;;;;;7.30;6.60;;;;;;;;;;5072776;28;20282;-79
2022/09/15 08:48:25;;;;;;;9.18;7.95;;;;;;;;;;5072859;28;20195;-79
2022/09/15 08:50:53;;;;;;;7.70;6.68;;;;;;;;;;5072928;28;20207;-78
2022/09/15 08:53:24;;;;;;;8.45;7.13;;;;;;;;;;5072767;28;20238;-78
2022/09/15 08:55:53;;;;;;;8.10;6.43;;;;;;;;;;5072565;28;20408;-78
2022/09/15 08:58:21;;;;;;;8.40;7.50;;;;;;;;;;5066082;28;20307;-78
2022/09/15 09:00:50;;;;;;;8.15;7.10;;;;;;;;;;5052966;28;20314;-78
2022/09/15 09:03:37;;;;;;;8.05;6.47;;;;;;;;;;5052401;28;20212;-78
2022/09/15 09:06:12;;;;;;;7.97;7.28;;;;;;;;;;5061829;28;20287;-79
2022/09/15 09:08:51;;;;;;;9.10;6.70;;;;;;;;;;5060252;28;20206;-79
2022/09/15 09:11:23;;;;;;;7.97;7.10;;;;;;;;;;5053253;28;20199;-80
2022/09/15 09:13:55;;;;;;;9.48;7.47;;;;;;;;;;5066900;28;20226;-79
2022/09/15 09:16:40;;;;;;;10.27;7.28;;;;;;;;;;5081963;28;20931;-80
2022/09/15 09:19:15;;;;;;;8.50;7.40;;;;;;;;;;5070682;28;20230;-79
2022/09/15 09:21:44;;;;;;;10.23;7.18;;;;;;;;;;5072602;28;20341;-79
2022/09/15 09:24:16;;;;;;;7.88;7.10;;;;;;;;;;5091996;28;20198;-80
2022/09/15 09:26:43;;;;;;;9.70;7.60;;;;;;;;;;5080599;28;20195;-79
2022/09/15 09:29:13;;;;;;;12.52;8.02;;;;;;;;;;5065836;28;20199;-79
2022/09/15 09:31:41;;;;;;;10.10;7.72;;;;;;;;;;5072311;28;20618;-79
2022/09/15 09:34:15;;;;;;;10.55;6.40;;;;;;;;;;5071446;28;20747;-79
2022/09/15 09:36:42;;;;;;;8.15;5.85;;;;;;;;;;5071620;28;20637;-79
2022/09/15 09:39:12;;;;;;;8.82;6.85;;;;;;;;;;5071296;28;20238;-80
2022/09/15 09:41:42;;;;;;;7.30;6.40;;;;;;;;;;5070611;28;20254;-79
2022/09/15 09:44:11;;;;;;;6.70;5.95;;;;;;;;;;5068781;28;20329;-79
2022/09/15 09:46:39;;;;;;;8.73;5.65;;;;;;;;;;5070763;28;20629;-80
2022/09/15 09:49:15;;;;;;;7.53;5.03;;;;;;;;;;5070902;28;20584;-79
2022/09/15 09:51:50;;;;;;;6.63;4.45;;;;;;;;;;5070825;28;20582;-79
2022/09/15 09:54:19;;;;;;;5.63;4.65;;;;;;;;;;5072325;28;20548;-80
2022/09/15 09:56:49;;;;;;;5.97;4.32;;;;;;;;;;5071218;28;20264;-80
2022/09/15 09:59:32;;;;;;;7.28;4.88;;;;;;;;;;5088153;28;20245;-79
2022/09/15 10:02:16;;;;;;;5.22;4.70;;;;;;;;;;5079599;28;20219;-79
2022/09/15 10:04:44;;;;;;;6.15;4.40;;;;;;;;;;5071214;28;20659;-79
2022/09/15 10:07:11;;;;;;;6.40;4.68;;;;;;;;;;5067327;28;20274;-80
2022/09/15 10:09:39;;;;;;;7.03;4.68;;;;;;;;;;5051725;28;20239;-79
2022/09/15 10:12:08;;;;;;;5.75;4.40;;;;;;;;;;5066453;28;20191;-79
2022/09/15 10:14:36;;;;;;;6.25;4.50;;;;;;;;;;5070811;28;20203;-79
2022/09/15 10:17:06;;;;;;;6.10;4.78;;;;;;;;;;5071674;28;20686;-80
2022/09/15 10:19:36;;;;;;;8.45;4.30;;;;;;;;;;5065489;28;20641;-80
2022/09/15 10:22:05;;;;;;;4.18;3.58;;;;;;;;;;5069248;28;20309;-80
2022/09/15 10:24:34;;;;;;;4.60;4.10;;;;;;;;;;5069493;28;20290;-79
2022/09/15 10:27:26;;;;;;;5.72;3.97;;;;;;;;;;5055495;28;20222;-79
2022/09/15 10:29:53;;;;;;;6.40;3.75;;;;;;;;;;5062301;28;20249;-79
2022/09/15 10:32:23;;;;;;;7.47;4.30;;;;;;;;;;5067119;28;20290;-79
2022/09/15 10:34:58;;;;;;;6.07;3.80;;;;;;;;;;5057116;28;20235;-80
2022/09/15 10:37:28;;;;;;;5.13;3.42;;;;;;;;;;5068953;28;20203;-79
2022/09/15 10:39:56;;;;;;;5.00;3.22;;;;;;;;;;5069540;28;20290;-79
2022/09/15 10:42:29;;;;;;;5.72;3.40;;;;;;;;;;5063750;28;20302;-79
2022/09/15 10:45:03;;;;;;;5.00;4.13;;;;;;;;;;5066912;28;20258;-80
2022/09/15 10:47:33;;;;;;;3.95;3.42;;;;;;;;;;5067084;28;20207;-79
2022/09/15 10:50:06;;;;;;;6.28;3.88;;;;;;;;;;5070097;28;20290;-79
2022/09/15 10:52:40;;;;;;;5.03;3.45;;;;;;;;;;5067087;28;20311;-80
2022/09/15 10:55:22;;;;;;;5.20;3.75;;;;;;;;;;5054254;28;20227;-79
2022/09/15 10:57:59;;;;;;;4.78;3.55;;;;;;;;;;5066211;28;20219;-79
2022/09/15 11:00:29;;;;;;;4.88;3.65;;;;;;;;;;5071236;28;20683;-79
2022/09/15 11:03:23;;;;;;;6.68;3.72;;;;;;;;;;5065570;28;20279;-79
2022/09/15 11:05:55;;;;;;;6.38;4.35;;;;;;;;;;5018816;28;20242;-80
2022/09/15 11:08:34;;;;;;;5.68;4.07;;;;;;;;;;5070683;28;20238;-79
2022/09/15 11:11:05;;;;;;;4.72;4.00;;;;;;;;;;5054943;28;20200;-79
2022/09/15 11:13:39;;;;;;;6.30;4.10;;;;;;;;;;5062363;28;20227;-80
2022/09/15 11:16:11;;;;;;;7.00;3.85;;;;;;;;;;5074344;28;20285;-79
2022/09/15 11:18:45;;;;;;;6.47;4.35;;;;;;;;;;5066150;28;20199;-79
2022/09/15 11:21:21;;;;;;;5.68;4.35;;;;;;;;;;5073994;28;20251;-79
2022/09/15 11:23:52;;;;;;;5.85;4.80;;;;;;;;;;5062784;28;20214;-80
2022/09/15 11:26:22;;;;;;;7.13;5.00;;;;;;;;;;5063444;28;20671;-79
2022/09/15 11:28:53;;;;;;;9.00;6.07;;;;;;;;;;5057878;28;20243;-79
2022/09/15 11:31:22;;;;;;;7.43;6.60;;;;;;;;;;5065048;28;20219;-80
2022/09/15 11:33:52;;;;;;;8.55;5.53;;;;;;;;;;5064804;28;20293;-78
2022/09/15 11:36:21;;;;;;;9.63;5.50;;;;;;;;;;5067251;28;20204;-79
2022/09/15 11:38:51;;;;;;;9.30;5.28;;;;;;;;;;5066588;28;20281;-79
2022/09/15 11:41:20;;;;;;;6.78;5.18;;;;;;;;;;5054272;28;20281;-79
2022/09/15 11:43:56;;;;;;;8.65;5.82;;;;;;;;;;5060718;28;20285;-78
2022/09/15 11:46:27;;;;;;;9.07;6.13;;;;;;;;;;5061628;28;20233;-80
2022/09/15 11:48:58;;;;;;;8.95;5.75;;;;;;;;;;5068864;28;20223;-80
2022/09/15 11:51:26;;;;;;;6.80;5.10;;;;;;;;;;5061029;28;20199;-81
2022/09/15 11:53:56;;;;;;;6.22;5.60;;;;;;;;;;5056116;28;20246;-79
2022/09/15 11:56:26;;;;;;;6.15;4.55;;;;;;;;;;5074042;28;20282;-80
2022/09/15 11:59:01;;;;;;;7.03;5.53;;;;;;;;;;5073637;28;20255;-80
2022/09/15 12:01:30;;;;;;;7.60;5.47;;;;;;;;;;5060052;28;20223;-80
2022/09/15 12:04:01;;;;;;;9.05;5.75;;;;;;;;;;5069345;28;20203;-80
2022/09/15 12:06:31;;;;;;;7.88;5.90;;;;;;;;;;5059313;28;20752;-80
2022/09/15 12:08:59;;;;;;;6.63;5.28;;;;;;;;;;5063284;28;20634;-79
2022/09/15 12:11:27;;;;;;;6.70;5.85;;;;;;;;;;5067017;28;20194;-80
2022/09/15 12:13:58;;;;;;;9.15;6.13;;;;;;;;;;5056330;28;20227;-79
2022/09/15 12:16:26;;;;;;;9.52;6.20;;;;;;;;;;5071214;28;20278;-79
2022/09/15 12:18:56;;;;;;;6.07;5.30;;;;;;;;;;5064186;28;20684;-80
2022/09/15 12:21:28;;;;;;;7.35;4.95;;;;;;;;;;5065298;28;20703;-80
2022/09/15 12:23:58;;;;;;;8.95;5.30;;;;;;;;;;5073207;28;20671;-79
2022/09/15 12:26:27;;;;;;;7.43;5.90;;;;;;;;;;5083706;28;20600;-79
2022/09/15 12:28:57;;;;;;;6.90;6.18;;;;;;;;;;5093261;28;20692;-80
2022/09/15 12:31:27;;;;;;;7.45;5.40;;;;;;;;;;5075346;28;20226;-79
2022/09/15 12:33:54;;;;;;;8.13;5.85;;;;;;;;;;5072984;28;20238;-79
2022/09/15 12:36:39;;;;;;;9.48;6.93;;;;;;;;;;5072907;28;20203;-79
2022/09/15 12:39:20;;;;;;;8.32;6.63;;;;;;;;;;5072886;28;20348;-79
2022/09/15 12:41:48;;;;;;;10.73;6.25;;;;;;;;;;5073059;28;20722;-80
2022/09/15 12:44:19;;;;;;;7.63;6.47;;;;;;;;;;5072342;28;20713;-79
2022/09/15 12:46:51;;;;;;;9.13;6.18;;;;;;;;;;5072834;28;20230;-79
2022/09/15 12:49:22;;;;;;;5.85;5.15;;;;;;;;;;5072662;28;20203;-79
2022/09/15 12:51:50;;;;;;;9.02;5.65;;;;;;;;;;5070155;28;20222;-80
2022/09/15 12:54:22;;;;;;;6.35;5.10;;;;;;;;;;5052475;28;20235;-80
2022/09/15 12:56:52;;;;;;;8.65;5.72;;;;;;;;;;5063290;28;20249;-79
2022/09/15 12:59:24;;;;;;;6.93;5.28;;;;;;;;;;5072656;28;20255;-80
2022/09/15 13:01:52;;;;;;;7.50;4.97;;;;;;;;;;5054207;28;20215;-79
2022/09/15 13:04:27;;;;;;;6.50;4.68;;;;;;;;;;5052128;28;20211;-79
2022/09/15 13:07:12;;;;;;;7.55;4.80;;;;;;;;;;5052572;28;20683;-79
2022/09/15 13:09:44;;;;;;;6.13;4.50;;;;;;;;;;5042605;28;20235;-79
2022/09/15 13:12:13;;;;;;;6.30;4.18;;;;;;;;;;5052435;28;20680;-79
2022/09/15 13:14:43;;;;;;;8.63;4.80;;;;;;;;;;5052666;28;20235;-79
2022/09/15 13:17:15;;;;;;;6.90;4.50;;;;;;;;;;5052358;28;20283;-80
2022/09/15 13:19:45;;;;;;;4.78;4.07;;;;;;;;;;5066335;28;20196;-75
2022/09/15 13:22:18;;;;;;;6.72;4.00;;;;;;;;;;5072181;28;20218;-75
2022/09/15 13:24:47;;;;;;;5.32;3.90;;;;;;;;;;5072354;28;20242;-76
2022/09/15 13:27:17;;;;;;;5.22;4.10;;;;;;;;;;5072552;28;20238;-75
2022/09/15 13:29:47;;;;;;;5.90;4.13;;;;;;;;;;5072131;28;20206;-75
2022/09/15 13:32:18;;;;;;;7.35;3.65;;;;;;;;;;5072642;28;20252;-75
2022/09/15 13:35:01;;;;;;;5.53;4.13;;;;;;;;;;5072034;28;20249;-74
2022/09/15 13:37:42;;;;;;;5.43;3.85;;;;;;;;;;5072134;28;20237;-75
2022/09/15 13:40:26;;;;;;;6.30;3.58;;;;;;;;;;5072159;28;20277;-75
2022/09/15 13:43:01;;;;;;;4.85;3.55;;;;;;;;;;5071247;28;20222;-75
2022/09/15 13:45:42;;;;;;;4.32;3.42;;;;;;;;;;5071220;28;20325;-75
2022/09/15 13:48:19;;;;;;;5.25;3.53;;;;;;;;;;5072010;28;20679;-75
2022/09/15 13:50:51;;;;;;;3.70;2.95;;;;;;;;;;5072033;28;20206;-75
2022/09/15 13:53:28;;;;;;;4.63;3.10;;;;;;;;;;5065785;28;20200;-75
2022/09/15 13:55:56;;;;;;;5.00;3.08;;;;;;;;;;5052080;28;20290;-75
2022/09/15 13:58:24;;;;;;;6.40;3.10;;;;;;;;;;5065851;28;20714;-74
2022/09/15 14:00:59;;;;;;;5.25;3.05;;;;;;;;;;5071156;28;20679;-74
2022/09/15 14:03:29;;;;;;;6.18;3.60;;;;;;;;;;5070648;28;20269;-75
2022/09/15 14:05:57;;;;;;;7.43;3.72;;;;;;;;;;5071191;28;20203;-75
2022/09/15 14:08:27;;;;;;;4.63;3.50;;;;;;;;;;5071535;28;20234;-75
2022/09/15 14:10:56;;;;;;;5.82;3.30;;;;;;;;;;5071304;28;20682;-74
2022/09/15 14:13:26;;;;;;;5.75;3.22;;;;;;;;;;5070317;28;20195;-76
2022/09/15 14:16:02;;;;;;;4.55;3.38;;;;;;;;;;5073424;28;20195;-75
2022/09/15 14:18:30;;;;;;;5.80;3.63;;;;;;;;;;5074716;28;20260;-74
2022/09/15 14:20:58;;;;;;;5.45;3.20;;;;;;;;;;5065301;28;20196;-75
2022/09/15 14:23:25;;;;;;;5.88;3.40;;;;;;;;;;5054874;28;20219;-75
2022/09/15 14:25:53;;;;;;;6.00;3.15;;;;;;;;;;5054618;28;20200;-74
2022/09/15 14:28:27;;;;;;;5.00;3.05;;;;;;;;;;5054682;28;20250;-75
2022/09/15 14:30:55;;;;;;;7.05;2.90;;;;;;;;;;5065790;28;20296;-75
2022/09/15 14:33:24;;;;;;;8.00;3.08;;;;;;;;;;5055112;28;20284;-75
2022/09/15 14:35:51;;;;;;;5.68;3.15;;;;;;;;;;5061080;28;20238;-75
2022/09/15 14:38:22;;;;;;;4.05;3.00;;;;;;;;;;5075028;28;20260;-75
2022/09/15 14:40:52;;;;;;;5.38;3.00;;;;;;;;;;5075202;28;20199;-75
2022/09/15 14:43:25;;;;;;;5.82;3.42;;;;;;;;;;5073869;28;20223;-75
2022/09/15 14:45:53;;;;;;;4.60;3.30;;;;;;;;;;5074264;28;20290;-75
2022/09/15 14:48:25;;;;;;;3.97;2.97;;;;;;;;;;5075109;28;20230;-75
2022/09/15 14:50:58;;;;;;;5.40;3.20;;;;;;;;;;5074673;28;20203;-75
2022/09/15 14:53:27;;;;;;;4.43;3.42;;;;;;;;;;5067409;28;20774;-75
2022/09/15 14:55:56;;;;;;;6.03;3.50;;;;;;;;;;5054778;28;20207;-75